createdAt,value
2022-12-29T00:02:11.766Z,3.00
2022-12-29T00:07:16.667Z,2.63
2022-12-29T00:12:21.531Z,3.40
2022-12-29T00:17:24.936Z,3.00
2022-12-29T00:22:47.399Z,3.08
2022-12-29T00:28:07.975Z,2.42
2022-12-29T00:33:29.978Z,2.95
2022-12-29T00:38:57.294Z,2.70
2022-12-29T00:44:07.093Z,2.72
2022-12-29T00:49:31.241Z,3.25
2022-12-29T00:54:37.867Z,2.70
2022-12-29T00:59:42.768Z,3.15
2022-12-29T01:04:46.171Z,2.50
2022-12-29T01:10:08.448Z,2.85
2022-12-29T01:15:13.299Z,3.55
2022-12-29T01:20:16.747Z,2.13
2022-12-29T01:25:21.504Z,2.67
2022-12-29T01:30:24.867Z,2.17
2022-12-29T01:35:28.568Z,2.15
2022-12-29T01:40:33.733Z,2.33
2022-12-29T01:45:37.305Z,2.40
2022-12-29T01:50:44.176Z,1.90
2022-12-29T01:55:54.258Z,1.90
2022-12-29T02:00:57.904Z,2.45
2022-12-29T02:06:06.534Z,2.35
2022-12-29T02:11:12.770Z,2.47
2022-12-29T02:16:33.820Z,2.10
2022-12-29T02:22:02.351Z,2.50
2022-12-29T02:27:31.173Z,2.08
2022-12-29T02:32:47.795Z,2.10
2022-12-29T02:38:01.524Z,2.10
2022-12-29T02:43:12.693Z,2.33
2022-12-29T02:48:22.713Z,2.40
2022-12-29T02:53:41.043Z,2.83
2022-12-29T02:58:44.593Z,2.50
2022-12-29T03:04:05.908Z,2.45
2022-12-29T03:09:22.854Z,2.10
2022-12-29T03:14:48.923Z,2.40
2022-12-29T03:19:56.910Z,2.03
2022-12-29T03:25:04.755Z,2.50
2022-12-29T03:30:10.069Z,2.17
2022-12-29T03:35:18.427Z,2.53
2022-12-29T03:40:24.976Z,2.50
2022-12-29T03:45:28.397Z,2.17
2022-12-29T03:50:33.123Z,2.92
2022-12-29T03:55:36.576Z,2.70
2022-12-29T04:00:40.029Z,2.45
2022-12-29T04:05:45.013Z,2.15
2022-12-29T04:10:49.906Z,1.73
2022-12-29T04:15:53.464Z,1.80
2022-12-29T04:21:04.993Z,2.13
2022-12-29T04:26:10.036Z,2.42
2022-12-29T04:31:13.675Z,1.80
2022-12-29T04:36:18.509Z,1.67
2022-12-29T04:41:22.241Z,2.70
2022-12-29T04:46:25.799Z,2.05
2022-12-29T04:51:30.688Z,1.98
2022-12-29T04:56:34.125Z,1.90
2022-12-29T05:01:37.944Z,1.88
2022-12-29T05:06:42.717Z,3.50
2022-12-29T05:11:46.087Z,2.70
2022-12-29T05:16:49.696Z,2.42
2022-12-29T05:21:55.447Z,2.20
2022-12-29T05:26:59.347Z,2.88
2022-12-29T05:32:02.695Z,2.08
2022-12-29T05:37:07.466Z,2.53
2022-12-29T05:42:10.860Z,2.67
2022-12-29T05:47:14.702Z,2.58
2022-12-29T05:52:19.494Z,2.83
2022-12-29T05:57:22.970Z,2.78
2022-12-29T06:02:26.505Z,2.75
2022-12-29T06:07:31.354Z,3.28
2022-12-29T06:12:34.770Z,2.53
2022-12-29T06:17:38.300Z,2.72
2022-12-29T06:22:43.121Z,3.50
2022-12-29T06:27:46.742Z,3.65
2022-12-29T06:32:50.167Z,2.90
2022-12-29T06:37:55.056Z,3.38
2022-12-29T06:42:58.689Z,3.13
2022-12-29T06:48:02.480Z,3.28
2022-12-29T06:53:07.546Z,3.13
2022-12-29T06:58:11.108Z,3.95
2022-12-29T07:03:14.549Z,4.22
2022-12-29T07:08:19.317Z,3.83
2022-12-29T07:13:22.855Z,3.72
2022-12-29T07:18:26.274Z,3.67
2022-12-29T07:23:31.166Z,3.53
2022-12-29T07:28:35.993Z,3.28
2022-12-29T07:33:39.433Z,3.83
2022-12-29T07:38:44.446Z,4.25
2022-12-29T07:43:49.676Z,3.90
2022-12-29T07:48:53.258Z,4.65
2022-12-29T07:53:58.049Z,5.38
2022-12-29T07:59:01.399Z,3.78
2022-12-29T08:04:05.057Z,3.92
2022-12-29T08:09:15.121Z,4.10
2022-12-29T08:14:21.766Z,4.00
2022-12-29T08:19:26.939Z,3.90
2022-12-29T08:24:31.909Z,4.32
2022-12-29T08:29:35.366Z,4.20
2022-12-29T08:34:38.868Z,4.70
2022-12-29T08:39:43.995Z,4.05
2022-12-29T08:44:47.373Z,3.78
2022-12-29T08:49:51.084Z,4.13
2022-12-29T08:54:55.944Z,3.85
2022-12-29T08:59:59.363Z,5.30
2022-12-29T09:05:02.791Z,3.72
2022-12-29T09:10:08.628Z,3.75
2022-12-29T09:15:13.145Z,4.15
2022-12-29T09:20:18.796Z,4.05
2022-12-29T09:25:25.340Z,3.80
2022-12-29T09:30:28.759Z,4.13
2022-12-29T09:35:32.255Z,4.55
2022-12-29T09:40:37.560Z,4.50
2022-12-29T09:45:46.672Z,3.70
2022-12-29T09:50:54.874Z,3.67
2022-12-29T09:56:02.549Z,4.68
2022-12-29T10:01:08.814Z,4.20
2022-12-29T10:06:15.974Z,3.78
2022-12-29T10:11:33.422Z,3.90
2022-12-29T10:16:44.814Z,3.88
2022-12-29T10:22:01.723Z,3.60
2022-12-29T10:27:12.305Z,4.07
2022-12-29T10:32:26.069Z,3.50
2022-12-29T10:37:36.582Z,3.08
2022-12-29T10:42:45.152Z,3.45
2022-12-29T10:47:57.349Z,3.28
2022-12-29T10:53:04.851Z,3.88
2022-12-29T10:58:14.411Z,3.53
2022-12-29T11:03:52.768Z,2.80
2022-12-29T11:08:59.742Z,3.65
2022-12-29T11:14:14.382Z,3.28
2022-12-29T11:19:25.307Z,3.13
2022-12-29T11:24:30.416Z,2.53
2022-12-29T11:29:42.261Z,3.50
2022-12-29T11:34:46.315Z,3.20
2022-12-29T11:39:54.414Z,3.15
2022-12-29T11:45:10.715Z,3.00
2022-12-29T11:50:20.968Z,3.38
2022-12-29T11:55:28.091Z,3.42
2022-12-29T12:00:36.446Z,3.22
2022-12-29T12:05:45.869Z,3.33
2022-12-29T12:10:56.645Z,3.53
2022-12-29T12:16:08.559Z,3.55
2022-12-29T12:21:20.663Z,2.88
2022-12-29T12:26:32.409Z,3.65
2022-12-29T12:31:47.514Z,3.95
2022-12-29T12:37:04.849Z,3.90
2022-12-29T12:42:20.281Z,4.38
2022-12-29T12:47:52.021Z,4.22
2022-12-29T12:53:10.970Z,3.80
2022-12-29T12:58:22.257Z,3.60
2022-12-29T13:03:40.733Z,4.05
2022-12-29T13:09:18.888Z,3.60
2022-12-29T13:14:33.431Z,2.58
2022-12-29T13:19:43.504Z,3.08
2022-12-29T13:25:00.372Z,2.78
2022-12-29T13:30:07.455Z,2.78
2022-12-29T13:35:29.278Z,2.97
2022-12-29T13:40:39.685Z,3.53
2022-12-29T13:45:45.755Z,3.00
2022-12-29T13:50:54.697Z,3.55
2022-12-29T13:56:05.635Z,4.50
2022-12-29T14:01:15.299Z,4.93
2022-12-29T14:06:26.952Z,5.13
2022-12-29T14:11:35.944Z,5.70
2022-12-29T14:16:39.491Z,6.32
2022-12-29T14:21:53.882Z,6.38
2022-12-29T14:26:57.284Z,6.20
2022-12-29T14:32:00.957Z,5.55
2022-12-29T14:37:06.320Z,5.65
2022-12-29T14:42:16.244Z,6.20
2022-12-29T14:47:24.674Z,6.35
2022-12-29T14:52:30.786Z,6.15
2022-12-29T14:57:41.340Z,6.15
2022-12-29T15:02:50.056Z,6.75
2022-12-29T15:07:55.677Z,6.72
2022-12-29T15:13:05.576Z,6.53
2022-12-29T15:18:27.230Z,7.72
2022-12-29T15:23:35.550Z,8.40
2022-12-29T15:28:41.452Z,7.70
2022-12-29T15:33:48.374Z,7.82
2022-12-29T15:38:53.985Z,7.80
2022-12-29T15:44:06.915Z,8.05
2022-12-29T15:49:11.252Z,8.40
2022-12-29T15:54:20.092Z,7.63
2022-12-29T15:59:27.505Z,8.50
2022-12-29T16:04:48.581Z,8.07
2022-12-29T16:10:01.240Z,8.05
2022-12-29T16:15:07.241Z,8.25
2022-12-29T16:20:19.853Z,9.63
2022-12-29T16:25:27.385Z,9.23
2022-12-29T16:30:34.180Z,9.07
2022-12-29T16:35:47.191Z,9.57
2022-12-29T16:40:55.975Z,8.83
2022-12-29T16:46:27.706Z,8.90
2022-12-29T16:51:33.627Z,8.98
2022-12-29T16:56:39.746Z,8.90
2022-12-29T17:01:43.967Z,9.52
2022-12-29T17:06:47.986Z,10.15
2022-12-29T17:12:03.982Z,10.13
2022-12-29T17:17:17.299Z,9.77
2022-12-29T17:22:25.169Z,8.88
2022-12-29T17:27:33.917Z,8.98
2022-12-29T17:32:37.349Z,7.47
2022-12-29T17:37:40.875Z,8.70
2022-12-29T17:42:47.591Z,8.20
2022-12-29T17:47:51.034Z,7.88
2022-12-29T17:53:00.652Z,8.13
2022-12-29T17:58:17.486Z,9.27
2022-12-29T18:03:25.972Z,8.88
2022-12-29T18:08:29.879Z,8.60
2022-12-29T18:13:45.470Z,7.45
2022-12-29T18:18:49.963Z,10.43
2022-12-29T18:23:53.631Z,9.50
2022-12-29T18:28:59.217Z,8.85
2022-12-29T18:34:08.452Z,9.63
2022-12-29T18:39:12.983Z,10.68
2022-12-29T18:44:17.713Z,10.70
2022-12-29T18:49:21.178Z,9.82
2022-12-29T18:54:29.770Z,9.95
2022-12-29T18:59:34.779Z,10.68
2022-12-29T19:04:38.370Z,8.50
2022-12-29T19:09:42.358Z,9.55
2022-12-29T19:14:47.212Z,9.25
2022-12-29T19:19:50.614Z,8.77
2022-12-29T19:24:59.801Z,10.02
2022-12-29T19:30:05.938Z,9.38
2022-12-29T19:35:10.595Z,10.40
2022-12-29T19:40:16.202Z,9.52
2022-12-29T19:45:21.503Z,9.13
2022-12-29T19:50:25.174Z,9.52
2022-12-29T19:55:28.686Z,9.02
2022-12-29T20:00:33.759Z,8.40
2022-12-29T20:05:37.517Z,10.10
2022-12-29T20:10:41.516Z,9.98
2022-12-29T20:15:46.351Z,8.93
2022-12-29T20:20:49.705Z,9.40
2022-12-29T20:25:57.258Z,8.98
2022-12-29T20:31:06.436Z,8.93
2022-12-29T20:36:12.473Z,10.07
2022-12-29T20:41:16.614Z,8.38
2022-12-29T20:46:25.193Z,9.05
2022-12-29T20:51:59.186Z,9.55
2022-12-29T21:01:59.026Z,9.47
2022-12-29T21:07:02.538Z,9.82
2022-12-29T21:12:06.995Z,10.88
2022-12-29T21:17:11.789Z,12.48
2022-12-29T21:22:15.236Z,11.77
2022-12-29T21:27:18.665Z,11.55
2022-12-29T21:32:23.671Z,10.52
2022-12-29T21:37:27.010Z,12.40
2022-12-29T21:42:30.401Z,11.52
2022-12-29T21:47:49.782Z,11.68
2022-12-29T21:52:53.191Z,11.50
2022-12-29T21:58:13.684Z,10.73
2022-12-29T22:03:36.033Z,10.48
2022-12-29T22:08:58.150Z,10.77
2022-12-29T22:14:02.245Z,10.50
2022-12-29T22:19:07.932Z,9.38
2022-12-29T22:24:11.316Z,9.15
2022-12-29T22:29:14.976Z,10.40
2022-12-29T22:34:20.764Z,10.75
2022-12-29T22:39:25.159Z,10.82
2022-12-29T22:44:28.576Z,9.57
2022-12-29T22:49:33.707Z,9.60
2022-12-29T22:54:37.301Z,9.48
2022-12-29T22:59:41.049Z,9.60
2022-12-29T23:05:03.945Z,9.45
2022-12-29T23:10:09.220Z,8.95
2022-12-29T23:15:13.589Z,8.77
2022-12-29T23:20:18.602Z,9.25
2022-12-29T23:25:22.016Z,9.48
2022-12-29T23:30:25.426Z,8.60
2022-12-29T23:35:30.420Z,8.10
2022-12-29T23:40:34.801Z,8.57
2022-12-29T23:45:39.164Z,8.25
2022-12-29T23:50:44.190Z,8.60
2022-12-29T23:55:54.759Z,8.85
